Time;durP1;ratioP1;P1;durP2;ratioP2;P2;SDS_P1;SDS_P2;PMS_P1;PMS_P2;Temp;Humidity;BMP_temperature;BMP_pressure;BME280_temperature;BME280_humidity;BME280_pressure;Samples;Min_cycle;Max_cycle;Signal;HPM_P1;HPM_P2
2021/08/27 00:01:11;;;;;;;3.27;1.30;;;;;;;14.76;77.51;99965.27;5266277;56;21183;-82
2021/08/27 00:06:18;;;;;;;1.03;1.00;;;;;;;14.59;77.74;99961.69;5266479;56;21180;-80
2021/08/27 00:11:24;;;;;;;1.83;1.53;;;;;;;14.52;78.36;99962.46;5266573;56;21105;-79
2021/08/27 00:16:29;;;;;;;4.27;2.60;;;;;;;14.44;78.45;99965.92;5327076;55;21527;-80
2021/08/27 00:21:35;;;;;;;8.00;2.73;;;;;;;14.40;78.74;99976.04;5375402;55;21172;-80
2021/08/27 00:26:41;;;;;;;4.27;1.90;;;;;;;14.40;79.08;99977.86;5375240;55;21152;-82
2021/08/27 00:31:46;;;;;;;5.03;2.80;;;;;;;14.38;79.37;99983.30;5322409;55;21560;-81
2021/08/27 00:36:52;;;;;;;4.87;2.10;;;;;;;14.35;79.35;99980.15;5284350;56;21288;-80
2021/08/27 00:41:58;;;;;;;3.67;3.37;;;;;;;14.33;79.49;99981.63;5282992;56;21750;-80
2021/08/27 00:47:04;;;;;;;3.60;2.83;;;;;;;14.30;79.75;99991.25;5282074;56;21211;-81
2021/08/27 00:52:12;;;;;;;2.07;1.40;;;;;;;14.22;80.08;99991.17;5280999;56;21733;-80
2021/08/27 00:57:17;;;;;;;1.50;1.40;;;;;;;14.15;80.26;99997.28;5282202;56;21248;-81
2021/08/27 01:02:23;;;;;;;3.60;1.70;;;;;;;14.10;80.69;99997.73;5281719;56;21675;-81
2021/08/27 01:07:46;;;;;;;1.60;0.80;;;;;;;14.01;80.82;100002.66;5282792;56;21479;-82
2021/08/27 01:13:06;;;;;;;1.17;0.90;;;;;;;13.94;81.13;100002.91;5283392;56;21191;-80
2021/08/27 01:18:37;;;;;;;0.87;0.87;;;;;;;13.97;81.43;100010.09;5248434;56;21165;-81
2021/08/27 01:23:46;;;;;;;2.20;1.10;;;;;;;13.92;81.69;100021.67;5136250;57;21537;-81
2021/08/27 01:28:55;;;;;;;0.80;0.73;;;;;;;13.88;81.90;100019.50;5138333;57;21218;-81
2021/08/27 01:34:30;;;;;;;6.73;2.40;;;;;;;13.80;81.96;100016.25;5234310;56;21174;-80
2021/08/27 01:39:43;;;;;;;3.67;2.43;;;;;;;13.77;82.48;100027.18;5139646;57;21205;-81
2021/08/27 01:44:52;;;;;;;5.33;3.03;;;;;;;13.74;82.67;100036.81;5234204;56;21207;-81
2021/08/27 01:49:59;;;;;;;4.57;2.57;;;;;;;13.77;82.79;100031.17;5139808;57;21182;-79
2021/08/27 01:55:08;;;;;;;1.83;0.90;;;;;;;13.80;82.88;100042.00;5234270;56;21549;-81
2021/08/27 02:00:15;;;;;;;2.60;0.67;;;;;;;13.86;83.27;100035.59;5139920;57;21122;-80
2021/08/27 02:05:22;;;;;;;0.53;0.53;;;;;;;13.96;82.99;100036.34;5234333;56;21176;-79
2021/08/27 02:10:29;;;;;;;0.80;0.73;;;;;;;14.04;82.71;100032.44;5139646;57;21205;-81
2021/08/27 02:15:36;;;;;;;1.80;1.40;;;;;;;14.02;82.57;100033.58;5230666;56;21260;-80
2021/08/27 02:20:41;;;;;;;1.13;0.90;;;;;;;14.11;83.26;100029.16;5160875;57;21191;-81
2021/08/27 02:25:49;;;;;;;2.80;2.43;;;;;;;14.28;83.32;100029.63;5183735;57;21168;-82
2021/08/27 02:30:56;;;;;;;2.27;1.20;;;;;;;14.31;82.17;100035.97;5153687;57;21170;-82
2021/08/27 02:36:03;;;;;;;1.37;1.00;;;;;;;14.23;81.81;100033.23;5170344;57;21167;-81
2021/08/27 02:41:09;;;;;;;0.80;0.80;;;;;;;14.12;82.00;100029.00;5144968;57;21179;-83
2021/08/27 02:46:15;;;;;;;0.60;0.60;;;;;;;14.13;82.31;100028.02;5152380;57;21101;-80
2021/08/27 02:51:26;;;;;;;1.23;1.13;;;;;;;14.09;82.28;100026.15;5134247;57;21731;-80
2021/08/27 02:56:35;;;;;;;4.23;3.60;;;;;;;14.22;82.70;100022.25;5094751;57;21198;-84
2021/08/27 03:01:51;;;;;;;1.83;1.73;;;;;;;14.32;83.28;100027.01;5149445;57;21164;-84
2021/08/27 03:07:05;;;;;;;1.37;0.90;;;;;;;14.37;82.85;100032.67;5140057;57;21164;-83
2021/08/27 03:12:09;;;;;;;4.87;1.90;;;;;;;14.29;82.63;100028.14;5146824;57;21162;-81
2021/08/27 03:17:20;;;;;;;2.53;1.50;;;;;;;14.13;82.47;100028.02;5117207;57;21625;-80
2021/08/27 03:22:33;;;;;;;1.63;1.00;;;;;;;14.01;82.71;100025.26;5154044;57;21507;-81
2021/08/27 03:27:46;;;;;;;1.25;1.15;;;;;;;14.11;83.61;100037.13;5154181;57;21211;-80
2021/08/27 03:33:00;;;;;;;3.87;2.00;;;;;;;14.11;83.50;100039.30;5169290;57;21175;-79
2021/08/27 03:38:06;;;;;;;17.90;8.10;;;;;;;14.10;83.75;100038.95;5169906;57;21574;-78
2021/08/27 03:43:14;;;;;;;11.23;3.17;;;;;;;14.15;84.09;100036.68;5170077;57;21171;-80
2021/08/27 03:48:21;;;;;;;1.57;1.40;;;;;;;14.32;84.58;100039.81;5197239;57;21152;-78
2021/08/27 03:53:28;;;;;;;5.63;1.07;;;;;;;14.43;84.61;100028.95;5170550;57;21101;-81
2021/08/27 03:58:33;;;;;;;0.90;0.90;;;;;;;14.50;84.15;100034.49;5197974;57;21692;-81
2021/08/27 04:03:41;;;;;;;3.13;0.70;;;;;;;14.51;83.75;100037.98;5170698;57;21203;-80
2021/08/27 04:08:47;;;;;;;1.00;1.00;;;;;;;14.47;83.50;100038.78;5197866;57;21105;-80
2021/08/27 04:13:53;;;;;;;0.80;0.80;;;;;;;14.45;83.51;100038.59;5170548;57;21156;-82
2021/08/27 04:18:58;;;;;;;1.03;0.80;;;;;;;14.32;83.28;100030.50;5197703;57;21171;-79
2021/08/27 04:24:05;;;;;;;0.93;0.90;;;;;;;14.18;83.19;100040.86;5170525;57;21112;-82
2021/08/27 04:29:12;;;;;;;2.60;1.63;;;;;;;14.08;83.24;100040.92;5192529;57;21606;-80
2021/08/27 04:34:17;;;;;;;8.97;3.37;;;;;;;13.99;83.32;100052.00;5170602;57;21104;-81
2021/08/27 04:39:23;;;;;;;2.47;2.27;;;;;;;13.98;83.66;100049.00;5112634;58;21172;-83
2021/08/27 04:44:29;;;;;;;7.13;5.13;;;;;;;14.04;84.54;100051.55;5158741;57;21187;-79
2021/08/27 04:49:35;;;;;;;1.90;1.50;;;;;;;14.16;85.09;100048.99;5101319;58;21186;-80
2021/08/27 04:54:40;;;;;;;6.53;0.90;;;;;;;14.29;84.91;100050.76;5158427;57;21274;-82
2021/08/27 04:59:47;;;;;;;3.57;1.17;;;;;;;14.37;84.23;100060.61;5100705;58;21191;-79
2021/08/27 05:04:53;;;;;;;2.70;1.47;;;;;;;14.34;84.37;100062.27;5157945;57;21211;-81
2021/08/27 05:09:58;;;;;;;1.53;0.80;;;;;;;14.35;84.63;100067.94;5100598;58;21216;-82
2021/08/27 05:15:06;;;;;;;3.70;1.27;;;;;;;14.39;84.64;100071.44;5158715;57;21183;-83
2021/08/27 05:20:12;;;;;;;2.67;1.10;;;;;;;14.45;84.88;100082.01;5089787;58;21187;-81
2021/08/27 05:25:18;;;;;;;0.80;0.80;;;;;;;14.41;84.35;100080.64;5080500;58;21250;-79
2021/08/27 05:30:24;;;;;;;8.07;1.37;;;;;;;14.37;84.04;100092.53;5116447;57;21809;-79
2021/08/27 05:35:30;;;;;;;4.10;1.00;;;;;;;14.39;84.10;100095.88;5198013;57;21194;-78
2021/08/27 05:40:36;;;;;;;3.37;0.90;;;;;;;14.48;84.14;100095.02;5198283;57;21188;-81
2021/08/27 05:45:41;;;;;;;6.67;3.47;;;;;;;14.58;84.16;100098.41;5200305;57;21270;-81
2021/08/27 05:50:48;;;;;;;1.93;1.83;;;;;;;14.61;84.15;100111.41;5200145;57;21168;-80
2021/08/27 05:55:54;;;;;;;0.77;0.77;;;;;;;14.63;83.62;100116.09;5200993;57;21217;-81
2021/08/27 06:01:00;;;;;;;0.80;0.80;;;;;;;14.65;83.69;100117.27;5200253;57;22383;-80
2021/08/27 06:06:06;;;;;;;0.80;0.80;;;;;;;14.67;84.31;100121.42;5200377;57;22580;-80
2021/08/27 06:11:12;;;;;;;2.77;1.10;;;;;;;14.72;84.35;100119.63;5199839;57;21452;-83
2021/08/27 06:16:18;;;;;;;1.23;0.73;;;;;;;14.91;84.66;100123.44;5199795;57;21256;-80
2021/08/27 06:21:24;;;;;;;1.40;0.87;;;;;;;15.07;83.94;100120.88;5200124;56;21570;-79
2021/08/27 06:26:30;;;;;;;6.07;1.50;;;;;;;15.03;82.66;100126.66;5200245;57;21220;-82
2021/08/27 06:31:35;;;;;;;0.80;0.80;;;;;;;14.98;83.38;100125.80;5136566;57;21677;-79
2021/08/27 06:36:41;;;;;;;2.10;0.90;;;;;;;14.99;82.96;100134.62;5082875;58;21227;-81
2021/08/27 06:41:48;;;;;;;1.17;1.17;;;;;;;14.98;83.07;100135.11;5093726;57;21488;-79
2021/08/27 06:46:54;;;;;;;1.33;1.03;;;;;;;15.07;83.62;100132.86;5082823;58;21240;-81
2021/08/27 06:52:00;;;;;;;5.87;5.27;;;;;;;15.32;83.38;100134.31;5082743;58;21219;-78
2021/08/27 06:57:06;;;;;;;1.30;1.20;;;;;;;15.47;83.08;100132.23;5082631;58;21183;-79
2021/08/27 07:02:12;;;;;;;6.33;3.00;;;;;;;15.61;82.47;100134.81;5082494;58;21172;-81
2021/08/27 07:07:17;;;;;;;1.50;1.03;;;;;;;15.67;82.00;100131.52;5083124;58;22675;-81
2021/08/27 07:12:23;;;;;;;2.93;1.20;;;;;;;15.76;82.03;100131.87;5082207;58;21199;-82
2021/08/27 07:17:28;;;;;;;0.80;0.80;;;;;;;15.87;81.50;100132.59;5080508;58;21191;-80
2021/08/27 07:22:35;;;;;;;1.33;0.90;;;;;;;16.11;80.71;100132.14;5093548;58;21251;-83
2021/08/27 07:27:42;;;;;;;1.23;0.60;;;;;;;16.45;80.08;100136.02;4962901;59;21745;-81
2021/08/27 07:32:48;;;;;;;1.57;0.80;;;;;;;16.67;78.36;100131.86;5146911;57;21163;-80
2021/08/27 07:37:54;;;;;;;1.60;0.80;;;;;;;16.67;77.68;100131.86;5064708;58;21159;-81
2021/08/27 07:43:01;;;;;;;1.67;1.57;;;;;;;16.72;77.62;100140.72;5144209;57;21163;-83
2021/08/27 07:48:07;;;;;;;6.07;1.87;;;;;;;16.47;77.64;100147.38;5012768;58;21751;-81
2021/08/27 07:53:13;;;;;;;1.83;1.70;;;;;;;16.08;77.67;100157.80;5144655;57;21621;-82
2021/08/27 07:58:18;;;;;;;1.90;1.80;;;;;;;15.86;78.91;100161.09;5066416;58;21105;-83
2021/08/27 08:03:24;;;;;;;2.20;2.00;;;;;;;15.71;79.63;100164.88;5146172;57;21160;-80
2021/08/27 08:08:30;;;;;;;5.07;2.67;;;;;;;15.69;80.30;100168.19;5003518;59;21528;-82
2021/08/27 08:13:35;;;;;;;1.87;1.77;;;;;;;15.83;80.81;100174.73;5143522;57;21167;-83
2021/08/27 08:18:41;;;;;;;1.50;0.97;;;;;;;15.91;80.39;100173.92;5064691;57;21989;-81
2021/08/27 08:23:47;;;;;;;0.70;0.70;;;;;;;16.03;78.80;100175.31;5125212;57;22051;-81
2021/08/27 08:28:54;;;;;;;1.17;1.17;;;;;;;16.11;77.69;100178.83;5118689;57;21213;-82
2021/08/27 08:34:00;;;;;;;1.10;1.00;;;;;;;16.25;78.54;100177.85;5119540;57;21504;-82
2021/08/27 08:39:07;;;;;;;2.93;1.03;;;;;;;16.30;77.15;100188.38;5129378;57;21144;-80
2021/08/27 08:44:13;;;;;;;2.67;0.70;;;;;;;16.42;77.22;100195.07;5128862;57;21167;-82
2021/08/27 08:49:22;;;;;;;0.87;0.83;;;;;;;16.52;76.31;100194.41;5128027;57;21502;-81
2021/08/27 08:54:29;;;;;;;0.90;0.77;;;;;;;16.61;75.69;100195.77;5127152;57;21166;-82
2021/08/27 08:59:38;;;;;;;1.40;0.70;;;;;;;16.64;74.69;100190.13;5116489;57;21137;-82
2021/08/27 09:04:44;;;;;;;2.00;1.13;;;;;;;16.71;75.23;100191.12;5125812;57;21999;-83
2021/08/27 09:09:50;;;;;;;3.23;1.93;;;;;;;16.79;75.10;100195.14;5116555;57;21182;-80
2021/08/27 09:15:03;;;;;;;1.60;1.20;;;;;;;16.86;75.30;100200.97;5116582;57;21086;-83
2021/08/27 09:20:11;;;;;;;1.17;1.02;;;;;;;16.93;75.35;100212.34;5128479;57;21187;-82
2021/08/27 09:25:23;;;;;;;0.80;0.80;;;;;;;16.98;74.34;100208.14;5108258;57;22197;-80
2021/08/27 09:30:30;;;;;;;0.57;0.57;;;;;;;17.00;74.05;100206.14;5124611;57;21150;-83
2021/08/27 09:35:36;;;;;;;2.77;1.20;;;;;;;16.97;74.15;100207.80;5126753;57;21781;-81
2021/08/27 09:40:48;;;;;;;1.53;1.20;;;;;;;17.00;74.26;100211.48;5127264;57;21151;-83
2021/08/27 09:45:49;;;;;;;0.80;0.80;;;;;;;16.91;72.60;100202.31;5127904;57;21176;-80
2021/08/27 09:50:55;;;;;;;1.03;0.70;;;;;;;16.87;73.06;100204.48;5125975;57;21151;-80
2021/08/27 09:56:05;;;;;;;0.63;0.63;;;;;;;17.10;74.60;100212.17;5127637;57;21722;-82
2021/08/27 10:01:10;;;;;;;0.87;0.87;;;;;;;17.36;73.69;100207.94;5129668;57;22145;-80
2021/08/27 10:06:33;;;;;;;0.97;0.70;;;;;;;17.50;72.95;100214.42;5129721;57;21511;-82
2021/08/27 10:11:39;;;;;;;0.90;0.90;;;;;;;17.51;73.29;100214.76;5105847;57;21138;-80
2021/08/27 10:16:45;;;;;;;1.87;0.47;;;;;;;17.53;71.04;100214.92;5128070;57;21741;-83
2021/08/27 10:21:52;;;;;;;2.00;1.00;;;;;;;17.45;71.41;100212.76;5110942;57;21210;-83
2021/08/27 10:26:58;;;;;;;1.33;0.80;;;;;;;17.36;71.37;100213.79;5217274;56;21169;-81
2021/08/27 10:32:05;;;;;;;0.70;0.70;;;;;;;17.42;71.33;100209.91;5217035;56;21070;-83
2021/08/27 10:37:14;;;;;;;1.37;0.87;;;;;;;17.51;72.14;100218.77;5220753;56;21144;-81
2021/08/27 10:42:49;;;;;;;0.50;0.50;;;;;;;17.57;70.64;100222.08;5215290;56;21147;-81
2021/08/27 10:48:17;;;;;;;1.27;0.97;;;;;;;17.48;70.51;100212.42;5216869;56;22047;-82
2021/08/27 10:53:35;;;;;;;1.00;1.00;;;;;;;17.39;71.02;100211.62;5216578;56;21144;-80
2021/08/27 10:58:53;;;;;;;0.70;0.70;;;;;;;17.44;71.44;100209.25;5217310;56;21135;-80
2021/08/27 11:04:37;;;;;;;0.83;0.67;;;;;;;17.48;71.18;100220.44;5216735;56;21148;-86
2021/08/27 11:09:54;;;;;;;;;;;;;;;17.32;71.01;100220.47;5012270;59;21144;-87
2021/08/27 11:15:30;;;;;;;3.50;0.63;;;;;;;17.35;71.61;100230.83;4990736;59;20200;-85
2021/08/27 11:20:36;;;;;;;1.73;1.13;;;;;;;17.42;70.46;100219.77;5006798;59;21161;-83
2021/08/27 11:25:45;;;;;;;1.00;1.00;;;;;;;17.36;72.32;100229.83;5012413;58;21153;-85
2021/08/27 11:31:12;;;;;;;2.07;1.23;;;;;;;17.25;72.91;100241.72;5012004;58;21144;-84
2021/08/27 11:36:20;;;;;;;5.47;4.43;;;;;;;17.26;73.11;100234.53;4921569;60;21219;-81
2021/08/27 11:41:27;;;;;;;6.43;4.90;;;;;;;17.19;72.98;100227.17;4988103;56;21139;-81
2021/08/27 11:46:35;;;;;;;2.17;1.50;;;;;;;17.23;73.21;100228.52;5196948;57;21159;-89
2021/08/27 11:52:02;;;;;;;17.17;10.63;;;;;;;17.32;73.32;100236.52;5118537;57;21179;-85
2021/08/27 11:57:18;;;;;;;1.30;1.20;;;;;;;17.41;73.34;100226.16;5173977;57;21141;-86
2021/08/27 12:02:24;;;;;;;9.13;7.67;;;;;;;17.56;73.20;100229.30;5146382;57;21161;-86
2021/08/27 12:07:30;;;;;;;5.80;1.00;;;;;;;17.66;73.35;100223.77;5196912;57;21168;-86
2021/08/27 12:12:38;;;;;;;2.13;1.57;;;;;;;17.74;71.75;100222.39;5146515;57;22117;-86
2021/08/27 12:17:59;;;;;;;1.90;1.60;;;;;;;17.83;71.89;100228.57;5197533;57;21196;-84
2021/08/27 12:28:18;;;;;;;1.37;1.23;;;;;;;17.92;71.10;100233.70;5198412;57;21097;-88
2021/08/27 12:33:26;;;;;;;0.90;0.90;;;;;;;17.96;71.00;100230.19;5095068;57;22169;-86
2021/08/27 12:38:33;;;;;;;2.10;0.90;;;;;;;18.00;71.67;100232.85;5105063;58;21188;-86
2021/08/27 12:48:08;;;;;;;3.40;0.90;;;;;;;18.14;71.53;100239.31;5466347;54;21615;-83
2021/08/27 12:53:14;;;;;;;1.90;1.80;;;;;;;18.13;71.68;100243.00;5162061;57;21217;-83
2021/08/27 12:58:32;;;;;;;1.97;1.40;;;;;;;18.14;70.87;100244.16;5340813;55;21645;-89
2021/08/27 13:03:40;;;;;;;1.40;1.30;;;;;;;18.11;71.13;100244.50;5340560;55;21531;-81
2021/08/27 13:08:53;;;;;;;3.17;0.80;;;;;;;18.13;70.81;100251.02;5340789;55;21448;-85
2021/08/27 13:14:02;;;;;;;2.30;2.08;;;;;;;18.09;70.46;100261.23;5335945;55;21172;-84
2021/08/27 13:19:07;;;;;;;4.90;1.00;;;;;;;17.92;70.76;100259.12;5337303;55;21180;-80
2021/08/27 13:24:15;;;;;;;1.00;0.90;;;;;;;17.88;71.53;100272.51;5339846;55;22472;-86
2021/08/27 13:29:21;;;;;;;4.97;0.80;;;;;;;17.90;71.16;100271.84;5340132;55;21235;-84
2021/08/27 13:34:26;;;;;;;6.13;4.87;;;;;;;17.96;71.64;100266.81;5340347;55;21700;-81
2021/08/27 13:39:32;;;;;;;2.27;1.80;;;;;;;18.00;71.45;100268.98;5339882;55;21215;-87
2021/08/27 13:44:38;;;;;;;2.50;1.70;;;;;;;18.00;71.25;100261.45;5332983;55;21730;-84
2021/08/27 13:49:43;;;;;;;4.07;2.30;;;;;;;18.03;70.98;100264.59;5293564;56;21240;-82
2021/08/27 13:54:49;;;;;;;3.13;1.30;;;;;;;18.04;70.86;100266.27;5293463;56;21180;-84
2021/08/27 13:59:54;;;;;;;1.17;1.10;;;;;;;18.03;70.85;100264.59;5291264;56;22554;-81
2021/08/27 14:05:00;;;;;;;1.73;1.17;;;;;;;18.03;71.07;100263.76;5291115;56;21244;-83
2021/08/27 14:10:11;;;;;;;2.77;1.10;;;;;;;18.07;70.42;100262.41;5291758;56;21447;-84
2021/08/27 14:15:17;;;;;;;2.33;1.47;;;;;;;18.06;70.86;100260.23;5292036;56;21184;-84
2021/08/27 14:20:22;;;;;;;1.93;1.60;;;;;;;18.16;71.29;100262.73;5291522;56;21546;-84
2021/08/27 14:25:29;;;;;;;2.27;1.37;;;;;;;18.25;70.71;100265.69;5291184;56;21172;-85
2021/08/27 14:30:35;;;;;;;1.63;1.30;;;;;;;18.31;70.75;100257.47;5267477;56;22337;-84
2021/08/27 14:35:41;;;;;;;4.85;2.98;;;;;;;18.35;70.74;100262.78;5252021;56;21730;-89
2021/08/27 14:40:46;;;;;;;1.60;1.33;;;;;;;18.37;70.91;100264.78;5249787;56;21172;-87
2021/08/27 14:45:52;;;;;;;2.02;1.55;;;;;;;18.45;69.92;100256.72;5250949;55;21729;-84
2021/08/27 14:50:58;;;;;;;1.50;1.47;;;;;;;18.39;70.05;100258.25;5247129;56;21242;-83
2021/08/27 14:56:04;;;;;;;2.30;1.37;;;;;;;18.48;70.30;100253.19;5252292;56;21227;-87
2021/08/27 15:01:10;;;;;;;3.17;1.40;;;;;;;18.65;69.88;100255.27;5206349;56;21189;-86
2021/08/27 15:06:15;;;;;;;1.40;1.30;;;;;;;18.67;68.53;100259.95;5212825;56;21114;-89
2021/08/27 15:11:21;;;;;;;1.25;1.22;;;;;;;18.65;69.00;100261.97;5226750;56;21491;-84
2021/08/27 15:16:27;;;;;;;3.37;1.35;;;;;;;18.68;68.88;100259.44;5205672;57;21731;-85
2021/08/27 15:21:32;;;;;;;1.87;1.77;;;;;;;18.70;68.76;100255.58;5205718;57;21247;-84
2021/08/27 15:26:38;;;;;;;1.90;1.80;;;;;;;18.72;68.92;100258.92;5206028;56;21583;-88
2021/08/27 15:31:44;;;;;;;4.00;3.55;;;;;;;18.71;68.86;100261.27;5255396;56;22571;-83
2021/08/27 15:36:49;;;;;;;1.57;1.45;;;;;;;18.69;68.83;100263.29;5294128;56;21207;-88
2021/08/27 15:41:55;;;;;;;4.03;1.55;;;;;;;18.69;68.77;100267.81;5294006;55;21113;-83
2021/08/27 15:47:01;;;;;;;5.12;1.95;;;;;;;18.69;69.35;100266.47;5287685;55;21174;-82
2021/08/27 15:52:07;;;;;;;1.92;1.67;;;;;;;18.68;68.97;100269.66;5245378;56;21201;-86
2021/08/27 15:57:12;;;;;;;1.40;1.30;;;;;;;18.68;68.61;100268.82;5205896;57;22358;-87
2021/08/27 16:02:21;;;;;;;2.22;1.00;;;;;;;18.76;68.51;100272.30;5206007;57;21225;-85
2021/08/27 16:07:27;;;;;;;1.42;1.22;;;;;;;18.88;68.04;100278.91;5205895;57;21613;-91
2021/08/27 16:12:36;;;;;;;7.28;1.77;;;;;;;18.90;68.84;100280.91;5212591;56;21101;-87
2021/08/27 16:17:41;;;;;;;3.37;1.80;;;;;;;18.87;68.61;100281.77;5259277;56;21171;-84
2021/08/27 16:22:47;;;;;;;2.90;1.35;;;;;;;18.84;68.83;100287.47;5268451;56;21145;-84
2021/08/27 16:27:53;;;;;;;1.22;1.22;;;;;;;18.80;68.81;100299.04;5228880;56;21480;-85
2021/08/27 16:32:59;;;;;;;2.58;1.10;;;;;;;18.71;68.50;100293.92;5221713;56;21168;-85
